Sweeney Granite Mountains, California Weather observations

Data are for 10 minute period ending at time listed.
 Day   Time   Solar   Ave.   Ave.  Ave.  Vector  Max.   Baro.   Total    
  of    of     Rad.   Air    Rel.  Wind   Wind   Wind  Press.  Precip.   
Year   Day            Temp.  Hum.  Speed  Dir.   Gust                    
2015   (PST)  Kw/m2    F      %     mph   deg.    mph    mb.     in.     
-------------------------------------------------------------------------
  62   12:10   0.35   45.9    62    3.1   252     8.3   865.6    0.00 
  62   12:20   0.73   47.4    58    3.0   284     6.9   865.5    0.00 
  62   12:30   0.37   46.5    58    3.7   272     9.6   865.3    0.00 
  62   12:40   0.29   46.1    62    4.4   234    11.5   865.1    0.00 
  62   12:50   0.88   46.9    62    5.8   235    12.0   865.0    0.00 
  62   13:00   0.94   47.7    59    6.3   242    14.2   864.8    0.00 
  62   13:10   0.99   48.1    56    6.1   224    12.4   864.6    0.00 
  62   13:20   0.75   49.1    52    5.4   223    12.4   864.5    0.00 
  62   13:30   0.60   48.0    55    4.8   240     9.3   864.4    0.00 
  62   13:40   0.92   49.2    50    5.1   289    10.3   864.3    0.00 
  62   13:50   0.64   50.1    47    4.0   276     8.5   864.2    0.00 
  62   14:00   0.44   48.8    47    3.4   226     8.8   864.1    0.00 
  62   14:10   0.56   48.6    46    2.6   350     6.0   864.0    0.00 
  62   14:20   0.43   50.1    44    4.4   119     9.4   863.9    0.00 
  62   14:30   0.58   49.1    45    5.8    99    10.1   863.9    0.00 
  62   14:40   0.25   48.2    45    7.5    86    11.5   864.0    0.00 
  62   14:50   0.16   47.0    46    4.6    70     9.1   864.0    0.00 
  62   15:00   0.26   46.9    44    7.3    58    14.6   864.0    0.00 
  62   15:10   0.36   46.7    42    6.1    49    13.8   863.9    0.00 
  62   15:20   0.48   49.0    41    6.2   351    11.2   863.9    0.00 
  62   15:30   0.44   48.7    41    6.4   293    12.9   863.9    0.00 
  62   15:40   0.40   48.7    43    5.8   306    10.5   863.9    0.00 
  62   15:50   0.21   47.9    46    4.7   305    10.7   864.0    0.00 
  62   16:00   0.06   46.8    49    5.5   336    10.8   863.9    0.00 
  62   16:10   0.06   46.3    49    7.1   317    13.0   864.0    0.00 
  62   16:20   0.05   46.1    48    6.7   322    12.8   864.0    0.00 
  62   16:30   0.04   46.1    46    7.0   313    12.7   864.0    0.00 
  62   16:40   0.04   45.9    45    5.4   343    11.4   863.9    0.00 
  62   16:50   0.03   45.8    46    7.2   295    12.3   864.0    0.00 
  62   17:00   0.03   45.5    46    7.0   309    10.0   864.1    0.00 
  62   17:10   0.03   44.7    49    7.0   293    10.9   864.2    0.00 
  62   17:20   0.01   44.1    48    6.3   289     8.6   864.3    0.00 
  62   17:30   0.01   43.8    47    5.1   285     7.0   864.4    0.00 
  62   17:40   0.01   43.4    46    5.7   282     9.3   864.4    0.00 
  62   17:50   0.00   43.2    47    4.6   297     7.1   864.5    0.00 
  62   18:00   0.00   43.4    45    5.5   313     7.7   864.6    0.00 
  62   18:10   0.00   42.6    47    3.9   295     6.2   864.7    0.00 
  62   18:20   0.00   42.5    44    4.5   281     7.2   864.8    0.00 
  62   18:30   0.00   43.1    40    4.3   255     7.7   864.8    0.00 
  62   18:40   0.00   44.0    36    2.2   207     7.7   864.9    0.00 
  62   18:50   0.00   43.8    37    1.6   161     3.7   865.0    0.00 
  62   19:00   0.00   42.8    42    2.2   144     4.4   865.2    0.00 
  62   19:10   0.00   41.4    46    0.7    22     2.6   865.2    0.00 
  62   19:20   0.00   42.2    47    3.1   174     5.9   865.2    0.00 
  62   19:30   0.00   43.4    47    2.8   166     7.2   865.4    0.00 
  62   19:40   0.00   43.5    49    3.3   148     8.8   865.4    0.00 
  62   19:50   0.00   43.4    51    4.0   231    10.0   865.5    0.00 
  62   20:00   0.00   43.8    52    4.4    69     9.2   865.6    0.00 
  62   20:10   0.00   43.6    53    6.1   102    16.3   865.7    0.00 
  62   20:20   0.00   43.4    56    3.2   124     7.2   865.8    0.00 
  62   20:30   0.00   43.4    56    1.9   148     5.0   865.8    0.00 
  62   20:40   0.00   43.4    57    2.2   119     6.6   865.8    0.00 
  62   20:50   0.00   43.3    56    2.9   117     4.8   865.8    0.00 
  62   21:00   0.00   43.4    56    2.3   117     3.6   865.9    0.00 
  62   21:10   0.00   43.0    57    1.6   105     3.4   866.0    0.00 
  62   21:20   0.00   42.8    57    2.3   114     6.3   865.9    0.00 
  62   21:30   0.00   43.7    54    4.2   132     6.6   866.0    0.00 
  62   21:40   0.00   43.8    54    3.7   128     7.7   866.1    0.00 
  62   21:50   0.00   43.3    56    2.7   128     7.3   866.1    0.00 
  62   22:00   0.00   43.5    54    3.4   134     6.4   866.2    0.00 
  62   22:10   0.00   43.0    56    5.2   106     8.6   866.3    0.00 
  62   22:20   0.00   42.6    58    4.9    81     7.7   866.3    0.00 
  62   22:30   0.00   42.5    58    5.0    80     8.2   866.4    0.00 
  62   22:40   0.00   42.1    59    5.8    88     9.3   866.4    0.00 
  62   22:50   0.00   42.3    58    5.1    84     7.4   866.4    0.00 
  62   23:00   0.00   42.0    59    4.9    97     7.0   866.4    0.00 
  62   23:10   0.00   41.3    60    4.4   103     8.8   866.5    0.00 
  62   23:20   0.00   41.5    60    3.4    97     6.4   866.5    0.00 
  62   23:30   0.00   41.1    60    3.8   185     7.4   866.6    0.00 
  62   23:40   0.00   40.8    61    2.4    85     5.5   866.6    0.00 
  62   23:50   0.00   40.7    61    5.6    92     8.8   866.6    0.00 
  63    0:00   0.00   42.1    58    7.2    77    10.7   866.7    0.00 
  63    0:10   0.00   42.2    58    4.6    84    10.3   866.8    0.00 
  63    0:20   0.00   41.8    59    4.6   120    13.2   866.8    0.00 
  63    0:30   0.00   42.3    58    5.0   164    11.6   866.9    0.00 
  63    0:40   0.00   41.9    59    4.9    67     8.8   867.0    0.00 
  63    0:50   0.00   41.9    59    3.0   310     8.6   867.0    0.00 
  63    1:00   0.00   41.3    60    2.9   238     9.2   867.1    0.00 
  63    1:10   0.00   41.5    61    3.0    62     7.6   867.2    0.00 
  63    1:20   0.00   41.2    63    2.3    15     7.5   867.3    0.00 
  63    1:30   0.00   41.1    64    4.5   314    10.2   867.4    0.00 
  63    1:40   0.00   40.7    65    5.4   280     9.6   867.4    0.00 
  63    1:50   0.00   40.6    66    4.1   323     9.2   867.4    0.00 
  63    2:00   0.00   40.1    68    5.4   315     8.7   867.4    0.00 
  63    2:10   0.00   40.0    69    8.4   312    12.9   867.4    0.00 
  63    2:20   0.00   39.9    70    8.4   321    11.0   867.4    0.00 
  63    2:30   0.00   39.1    73    9.2   309    13.1   867.4    0.00 
  63    2:40   0.00   39.1    74    9.3   304    14.8   867.5    0.00 
  63    2:50   0.00   39.4    73    7.3   294    17.0   867.5    0.00 
  63    3:00   0.00   39.4    72    4.5   329    10.2   867.4    0.00 
  63    3:10   0.00   39.0    72    5.1   125    13.7   867.4    0.00 
  63    3:20   0.00   38.6    72    4.5   130    15.2   867.3    0.00 
  63    3:30   0.00   38.2    70    6.5   181    12.9   867.4    0.00 
  63    3:40   0.00   37.6    67    2.8    84     5.9   867.4    0.00 
  63    3:50   0.00   36.7    67    2.9   213     7.4   867.4    0.00 
  63    4:00   0.00   37.3    62    1.5   212     3.9   867.4    0.00 
  63    4:10   0.00   37.1    61    4.3   169    10.4   867.4    0.00 
  63    4:20   0.00   37.0    58    5.0    98    10.2   867.5    0.00 
  63    4:30   0.00   37.4    54    3.6    80     6.6   867.5    0.00 
  63    4:40   0.00   37.7    52    2.8   202     8.6   867.6    0.00 
  63    4:50   0.00   38.0    50    6.7   242    18.6   867.6    0.00 
  63    5:00   0.00   37.7    50    7.6   311    20.2   867.7    0.00 
  63    5:10   0.00   37.4    49    6.5   290    18.9   867.8    0.00 
  63    5:20   0.00   37.1    50    6.1    54    19.2   867.8    0.00 
  63    5:30   0.00   37.0    49    6.7   306    23.3   867.9    0.00 
  63    5:40   0.00   36.9    48    6.1   279    20.3   868.0    0.00 
  63    5:50   0.00   36.8    46    4.8   296    17.0   868.1    0.00 
  63    6:00   0.00   36.5    45    9.6   328    21.4   868.2    0.00 
  63    6:10   0.00   35.8    46   12.7   321    24.4   868.2    0.00 
  63    6:20   0.00   35.5    45   16.5   315    30.0   868.3    0.00 
  63    6:30   0.02   35.4    45   16.0   316    25.9   868.3    0.00 
  63    6:40   0.04   35.5    45   16.9   315    28.6   868.3    0.00 
  63    6:50   0.07   35.9    44   16.3   307    27.8   868.6    0.00 
  63    7:00   0.10   36.3    43   18.4   303    29.7   868.6    0.00 
  63    7:10   0.14   36.9    40   15.6   303    27.1   868.8    0.00 
  63    7:20   0.17   37.5    38   13.9   307    24.0   869.0    0.00 
  63    7:30   0.21   38.0    37   14.4   312    25.1   869.2    0.00 
  63    7:40   0.25   38.5    35   14.1   315    25.9   869.4    0.00 
  63    7:50   0.28   38.8    34   15.7   312    25.5   869.6    0.00 
  63    8:00   0.32   39.0    33   17.0   315    27.8   869.7    0.00 
  63    8:10   0.36   39.3    32   17.1   310    30.0   869.8    0.00 
  63    8:20   0.40   39.5    32   18.1   309    28.1   870.1    0.00 
  63    8:30   0.44   39.9    30   15.3   317    29.4   870.3    0.00 
  63    8:40   0.47   39.9    30   17.6   315    30.5   870.3    0.00 
  63    8:50   0.50   40.0    31   18.6   312    30.0   870.3    0.00 
  63    9:00   0.54   40.3    29   18.3   311    27.3   870.4    0.00 
  63    9:10   0.57   40.1    31   22.2   308    34.8   870.4    0.00 
  63    9:20   0.60   40.5    30   21.9   308    34.9   870.5    0.00 
  63    9:30   0.62   41.2    30   17.8   309    31.0   870.8    0.00 
  63    9:40   0.65   41.8    29   17.5   306    28.7   870.8    0.00 
  63    9:50   0.68   41.8    29   17.2   310    28.8   870.8    0.00 
  63   10:00   0.70   42.4    29   15.0   306    31.7   870.9    0.00 
  63   10:10   0.72   42.4    28   15.4   308    32.5   870.9    0.00 
  63   10:20   0.74   43.2    27   15.2   315    28.9   870.9    0.00 
  63   10:30   0.76   42.8    28   18.6   318    31.0   871.0    0.00 
  63   10:40   0.78   43.2    28   17.4   317    35.3   871.1    0.00 
  63   10:50   0.79   43.3    27   17.7   309    32.5   871.1    0.00 
  63   11:00   0.81   43.4    27   17.8   311    34.1   871.1    0.00 
  63   11:10   0.82   44.1    28   16.7   314    30.7   871.2    0.00 
  63   11:20   0.82   44.0    28   16.5   311    27.7   871.2    0.00 
  63   11:30   0.84   44.3    28   17.1   311    30.5   871.2    0.00 
  63   11:40   0.84   45.0    27   18.1   308    29.7   871.2    0.00 
  63   11:50   0.84   45.2    26   13.7   320    24.0   871.3    0.00 
  63   12:00   0.85   45.6    26   14.4   316    26.1   871.4    0.00 

Return to Sweeney Granite Mountains graphs page.


Western Regional Climate Center,wrcc@dri.edu